sensor_id;sensor_type;location;lat;lon;timestamp;pressure;altitude;pressure_sealevel;temperature;humidity
1832;BME280;1680;48.106;11.708;2023-02-02T00:00:31;95913.53;;;5.05;81.71
1832;BME280;1680;48.106;11.708;2023-02-02T00:02:58;95898.66;;;5.14;80.28
1832;BME280;1680;48.106;11.708;2023-02-02T00:05:26;95905.81;;;5.12;79.90
1832;BME280;1680;48.106;11.708;2023-02-02T00:07:54;95904.66;;;5.14;80.34
1832;BME280;1680;48.106;11.708;2023-02-02T00:10:21;95906.09;;;5.17;80.55
1832;BME280;1680;48.106;11.708;2023-02-02T00:12:49;95908.59;;;5.10;81.13
1832;BME280;1680;48.106;11.708;2023-02-02T00:15:16;95917.28;;;5.03;81.28
1832;BME280;1680;48.106;11.708;2023-02-02T00:17:43;95910.66;;;5.00;82.24
1832;BME280;1680;48.106;11.708;2023-02-02T00:20:11;95904.09;;;4.90;84.63
1832;BME280;1680;48.106;11.708;2023-02-02T00:22:38;95908.31;;;4.91;85.83
1832;BME280;1680;48.106;11.708;2023-02-02T00:25:08;95909.94;;;4.92;86.63
1832;BME280;1680;48.106;11.708;2023-02-02T00:27:36;95909.66;;;4.87;84.26
1832;BME280;1680;48.106;11.708;2023-02-02T00:30:04;95902.06;;;5.00;84.69
1832;BME280;1680;48.106;11.708;2023-02-02T00:32:32;95903.94;;;4.91;85.45
1832;BME280;1680;48.106;11.708;2023-02-02T00:34:59;95906.44;;;4.85;84.98
1832;BME280;1680;48.106;11.708;2023-02-02T00:37:26;95885.13;;;4.89;83.61
1832;BME280;1680;48.106;11.708;2023-02-02T00:39:53;95902.25;;;4.84;84.86
1832;BME280;1680;48.106;11.708;2023-02-02T00:42:22;95899.25;;;4.87;85.22
1832;BME280;1680;48.106;11.708;2023-02-02T00:44:49;95894.88;;;4.87;85.95
1832;BME280;1680;48.106;11.708;2023-02-02T00:47:34;95895.53;;;4.89;84.97
1832;BME280;1680;48.106;11.708;2023-02-02T00:50:02;95899.72;;;4.76;87.01
1832;BME280;1680;48.106;11.708;2023-02-02T00:52:29;95895.25;;;4.84;85.74
1832;BME280;1680;48.106;11.708;2023-02-02T00:54:56;95898.66;;;4.85;84.88
1832;BME280;1680;48.106;11.708;2023-02-02T00:57:25;95886.66;;;4.84;85.08
1832;BME280;1680;48.106;11.708;2023-02-02T00:59:52;95883.34;;;4.76;86.71
1832;BME280;1680;48.106;11.708;2023-02-02T01:02:20;95891.28;;;4.74;86.15
1832;BME280;1680;48.106;11.708;2023-02-02T01:04:47;95891.28;;;4.74;87.61
1832;BME280;1680;48.106;11.708;2023-02-02T01:07:14;95829.09;;;4.29;88.69
1832;BME280;1680;48.106;11.708;2023-02-02T01:09:42;95926.31;;;4.64;89.02
1832;BME280;1680;48.106;11.708;2023-02-02T01:12:09;95900.22;;;4.57;89.96
1832;BME280;1680;48.106;11.708;2023-02-02T01:14:38;95902.22;;;4.55;90.65
1832;BME280;1680;48.106;11.708;2023-02-02T01:17:05;95865.38;;;4.37;91.06
1832;BME280;1680;48.106;11.708;2023-02-02T01:19:32;95892.34;;;4.65;92.59
1832;BME280;1680;48.106;11.708;2023-02-02T01:22:00;95886.25;;;4.58;92.12
1832;BME280;1680;48.106;11.708;2023-02-02T01:24:27;95884.53;;;4.51;92.64
1832;BME280;1680;48.106;11.708;2023-02-02T01:26:54;95876.00;;;4.42;93.96
1832;BME280;1680;48.106;11.708;2023-02-02T01:29:22;95889.28;;;4.47;93.97
1832;BME280;1680;48.106;11.708;2023-02-02T01:31:50;95884.16;;;4.39;93.79
1832;BME280;1680;48.106;11.708;2023-02-02T01:34:18;95885.41;;;4.43;93.06
1832;BME280;1680;48.106;11.708;2023-02-02T01:36:45;95861.44;;;4.41;94.63
1832;BME280;1680;48.106;11.708;2023-02-02T01:39:12;95864.72;;;4.35;94.18
1832;BME280;1680;48.106;11.708;2023-02-02T01:41:40;95872.44;;;4.43;94.05
1832;BME280;1680;48.106;11.708;2023-02-02T01:47:09;95856.25;;;4.56;93.48
1832;BME280;1680;48.106;11.708;2023-02-02T01:49:37;95859.84;;;4.55;93.51
1832;BME280;1680;48.106;11.708;2023-02-02T01:52:06;95853.84;;;4.54;93.04
1832;BME280;1680;48.106;11.708;2023-02-02T01:54:38;95865.13;;;4.61;91.38
1832;BME280;1680;48.106;11.708;2023-02-02T01:57:10;95854.09;;;4.59;91.69
1832;BME280;1680;48.106;11.708;2023-02-02T01:59:39;95854.47;;;4.56;92.61
1832;BME280;1680;48.106;11.708;2023-02-02T02:02:08;95840.13;;;4.60;92.43
1832;BME280;1680;48.106;11.708;2023-02-02T02:04:37;95826.78;;;4.63;90.82
1832;BME280;1680;48.106;11.708;2023-02-02T02:07:05;95838.97;;;4.77;89.33
1832;BME280;1680;48.106;11.708;2023-02-02T02:09:33;95822.50;;;4.70;89.50
1832;BME280;1680;48.106;11.708;2023-02-02T02:12:00;95835.94;;;4.74;89.33
1832;BME280;1680;48.106;11.708;2023-02-02T02:14:28;95829.31;;;4.71;88.49
1832;BME280;1680;48.106;11.708;2023-02-02T02:17:25;95860.59;;;4.78;88.43
1832;BME280;1680;48.106;11.708;2023-02-02T02:20:22;95857.25;;;4.83;87.63
1832;BME280;1680;48.106;11.708;2023-02-02T02:23:39;95855.81;;;4.81;88.54
1832;BME280;1680;48.106;11.708;2023-02-02T02:26:42;95847.94;;;4.75;88.64
1832;BME280;1680;48.106;11.708;2023-02-02T02:29:31;95856.19;;;4.78;88.02
1832;BME280;1680;48.106;11.708;2023-02-02T02:32:15;95843.53;;;4.75;88.79
1832;BME280;1680;48.106;11.708;2023-02-02T02:34:51;95860.19;;;4.80;88.54
1832;BME280;1680;48.106;11.708;2023-02-02T02:37:29;95843.19;;;4.78;87.53
1832;BME280;1680;48.106;11.708;2023-02-02T02:40:04;95841.56;;;4.77;87.81
1832;BME280;1680;48.106;11.708;2023-02-02T02:42:38;95847.41;;;4.79;88.40
1832;BME280;1680;48.106;11.708;2023-02-02T02:45:07;95845.88;;;4.70;88.00
1832;BME280;1680;48.106;11.708;2023-02-02T02:47:38;95837.00;;;4.79;88.23
1832;BME280;1680;48.106;11.708;2023-02-02T02:50:08;95844.44;;;4.82;88.09
1832;BME280;1680;48.106;11.708;2023-02-02T02:52:36;95837.91;;;4.86;87.76
1832;BME280;1680;48.106;11.708;2023-02-02T02:55:06;95787.03;;;4.48;87.13
1832;BME280;1680;48.106;11.708;2023-02-02T02:57:55;95836.47;;;4.83;87.15
1832;BME280;1680;48.106;11.708;2023-02-02T03:00:43;95837.53;;;4.89;86.96
1832;BME280;1680;48.106;11.708;2023-02-02T03:03:36;95831.91;;;4.85;86.29
1832;BME280;1680;48.106;11.708;2023-02-02T03:06:11;95838.34;;;4.89;86.99
1832;BME280;1680;48.106;11.708;2023-02-02T03:08:44;95834.31;;;4.87;86.65
1832;BME280;1680;48.106;11.708;2023-02-02T03:11:14;95840.13;;;4.89;86.61
1832;BME280;1680;48.106;11.708;2023-02-02T03:13:42;95825.44;;;4.96;86.24
1832;BME280;1680;48.106;11.708;2023-02-02T03:16:10;95846.31;;;4.88;86.68
1832;BME280;1680;48.106;11.708;2023-02-02T03:18:39;95848.31;;;4.86;87.10
1832;BME280;1680;48.106;11.708;2023-02-02T03:21:06;95853.13;;;4.89;87.55
1832;BME280;1680;48.106;11.708;2023-02-02T03:23:34;95856.00;;;4.94;87.00
1832;BME280;1680;48.106;11.708;2023-02-02T03:26:01;95867.03;;;4.96;87.59
1832;BME280;1680;48.106;11.708;2023-02-02T03:28:29;95864.25;;;4.83;91.36
1832;BME280;1680;48.106;11.708;2023-02-02T03:31:00;95842.63;;;4.54;93.12
1832;BME280;1680;48.106;11.708;2023-02-02T03:33:32;95866.81;;;4.54;93.24
1832;BME280;1680;48.106;11.708;2023-02-02T03:36:03;95860.66;;;4.55;92.42
1832;BME280;1680;48.106;11.708;2023-02-02T03:38:30;95869.44;;;4.54;93.02
1832;BME280;1680;48.106;11.708;2023-02-02T03:40:57;95843.72;;;4.59;93.47
1832;BME280;1680;48.106;11.708;2023-02-02T03:43:25;95859.56;;;4.64;93.14
1832;BME280;1680;48.106;11.708;2023-02-02T03:45:56;95861.09;;;4.59;94.29
1832;BME280;1680;48.106;11.708;2023-02-02T03:48:23;95857.13;;;4.48;95.78
1832;BME280;1680;48.106;11.708;2023-02-02T03:50:51;95862.97;;;4.50;96.72
1832;BME280;1680;48.106;11.708;2023-02-02T03:53:19;95868.22;;;4.42;97.02
1832;BME280;1680;48.106;11.708;2023-02-02T03:55:47;95845.22;;;4.39;97.15
1832;BME280;1680;48.106;11.708;2023-02-02T03:58:14;95858.56;;;4.51;97.09
1832;BME280;1680;48.106;11.708;2023-02-02T04:00:42;95864.88;;;4.56;96.09
1832;BME280;1680;48.106;11.708;2023-02-02T04:03:09;95855.81;;;4.52;95.65
1832;BME280;1680;48.106;11.708;2023-02-02T04:05:36;95865.22;;;4.53;94.80
1832;BME280;1680;48.106;11.708;2023-02-02T04:08:04;95831.63;;;4.37;95.22
1832;BME280;1680;48.106;11.708;2023-02-02T04:10:32;95842.38;;;4.63;94.72
1832;BME280;1680;48.106;11.708;2023-02-02T04:12:59;95842.47;;;4.55;94.97
1832;BME280;1680;48.106;11.708;2023-02-02T04:15:27;95851.97;;;4.63;94.81
1832;BME280;1680;48.106;11.708;2023-02-02T04:17:54;95869.03;;;4.57;94.80
1832;BME280;1680;48.106;11.708;2023-02-02T04:20:21;95861.38;;;4.64;94.88
1832;BME280;1680;48.106;11.708;2023-02-02T04:22:48;95791.59;;;4.32;95.24
1832;BME280;1680;48.106;11.708;2023-02-02T04:25:16;95858.22;;;4.54;96.06
1832;BME280;1680;48.106;11.708;2023-02-02T04:27:44;95847.03;;;4.53;97.05
1832;BME280;1680;48.106;11.708;2023-02-02T04:30:12;95859.94;;;4.61;96.70
1832;BME280;1680;48.106;11.708;2023-02-02T04:32:39;95872.38;;;4.66;97.11
1832;BME280;1680;48.106;11.708;2023-02-02T04:35:07;95859.47;;;4.58;96.51
1832;BME280;1680;48.106;11.708;2023-02-02T04:37:35;95857.25;;;4.69;95.77
1832;BME280;1680;48.106;11.708;2023-02-02T04:40:02;95860.50;;;4.71;95.81
1832;BME280;1680;48.106;11.708;2023-02-02T04:42:30;95859.84;;;4.69;96.99
1832;BME280;1680;48.106;11.708;2023-02-02T04:45:00;95864.78;;;4.64;99.09
1832;BME280;1680;48.106;11.708;2023-02-02T04:47:27;95848.81;;;4.38;100.00
1832;BME280;1680;48.106;11.708;2023-02-02T04:49:54;95853.44;;;4.28;100.00
1832;BME280;1680;48.106;11.708;2023-02-02T04:52:21;95877.25;;;4.32;100.00
1832;BME280;1680;48.106;11.708;2023-02-02T04:54:49;95862.13;;;4.35;100.00
1832;BME280;1680;48.106;11.708;2023-02-02T04:57:16;95872.91;;;4.47;100.00
1832;BME280;1680;48.106;11.708;2023-02-02T04:59:43;95866.53;;;4.49;100.00
1832;BME280;1680;48.106;11.708;2023-02-02T05:02:12;95855.00;;;4.52;100.00
1832;BME280;1680;48.106;11.708;2023-02-02T05:04:39;95851.25;;;4.54;100.00
1832;BME280;1680;48.106;11.708;2023-02-02T05:07:06;95864.88;;;4.56;98.61
1832;BME280;1680;48.106;11.708;2023-02-02T05:09:34;95870.66;;;4.58;97.91
1832;BME280;1680;48.106;11.708;2023-02-02T05:12:01;95878.03;;;4.69;96.93
1832;BME280;1680;48.106;11.708;2023-02-02T05:14:28;95884.13;;;4.76;96.79
1832;BME280;1680;48.106;11.708;2023-02-02T05:16:55;95880.09;;;4.74;97.07
1832;BME280;1680;48.106;11.708;2023-02-02T05:19:24;95886.72;;;4.76;96.70
1832;BME280;1680;48.106;11.708;2023-02-02T05:21:51;95880.53;;;4.77;95.70
1832;BME280;1680;48.106;11.708;2023-02-02T05:24:19;95885.75;;;4.77;96.27
1832;BME280;1680;48.106;11.708;2023-02-02T05:26:46;95882.84;;;4.72;97.56
1832;BME280;1680;48.106;11.708;2023-02-02T05:29:13;95885.84;;;4.69;97.83
1832;BME280;1680;48.106;11.708;2023-02-02T05:31:40;95897.91;;;4.62;99.15
1832;BME280;1680;48.106;11.708;2023-02-02T05:34:08;95883.31;;;4.61;99.35
1832;BME280;1680;48.106;11.708;2023-02-02T05:36:37;95898.97;;;4.53;100.00
1832;BME280;1680;48.106;11.708;2023-02-02T05:39:04;95894.31;;;4.63;100.00
1832;BME280;1680;48.106;11.708;2023-02-02T05:41:31;95907.41;;;4.70;99.61
1832;BME280;1680;48.106;11.708;2023-02-02T05:43:59;95904.91;;;4.62;100.00
1832;BME280;1680;48.106;11.708;2023-02-02T05:46:26;95910.59;;;4.57;100.00
1832;BME280;1680;48.106;11.708;2023-02-02T05:48:53;95911.22;;;4.59;100.00
1832;BME280;1680;48.106;11.708;2023-02-02T05:51:23;95902.91;;;4.49;100.00
1832;BME280;1680;48.106;11.708;2023-02-02T05:53:54;95911.66;;;4.48;100.00
1832;BME280;1680;48.106;11.708;2023-02-02T05:56:21;95910.06;;;4.47;100.00
1832;BME280;1680;48.106;11.708;2023-02-02T05:58:48;95917.69;;;4.49;100.00
1832;BME280;1680;48.106;11.708;2023-02-02T06:01:17;95886.78;;;4.39;100.00
1832;BME280;1680;48.106;11.708;2023-02-02T06:03:45;95906.13;;;4.51;100.00
1832;BME280;1680;48.106;11.708;2023-02-02T06:06:13;95910.06;;;4.47;100.00
1832;BME280;1680;48.106;11.708;2023-02-02T06:08:40;95920.28;;;4.49;100.00
1832;BME280;1680;48.106;11.708;2023-02-02T06:11:09;95912.59;;;4.55;100.00
1832;BME280;1680;48.106;11.708;2023-02-02T06:13:36;95887.25;;;4.20;100.00
1832;BME280;1680;48.106;11.708;2023-02-02T06:16:05;95918.47;;;4.49;100.00
1832;BME280;1680;48.106;11.708;2023-02-02T06:18:33;95913.84;;;4.59;100.00
1832;BME280;1680;48.106;11.708;2023-02-02T06:21:01;95913.38;;;4.56;100.00
1832;BME280;1680;48.106;11.708;2023-02-02T06:23:30;95924.69;;;4.63;100.00
1832;BME280;1680;48.106;11.708;2023-02-02T06:25:58;95904.72;;;4.63;100.00
1832;BME280;1680;48.106;11.708;2023-02-02T06:28:29;95904.38;;;4.66;100.00
1832;BME280;1680;48.106;11.708;2023-02-02T06:31:02;95905.78;;;4.54;100.00
1832;BME280;1680;48.106;11.708;2023-02-02T06:33:30;95913.19;;;4.57;100.00
1832;BME280;1680;48.106;11.708;2023-02-02T06:35:58;95903.00;;;4.56;100.00
1832;BME280;1680;48.106;11.708;2023-02-02T06:38:26;95915.09;;;4.63;99.95
1832;BME280;1680;48.106;11.708;2023-02-02T06:40:53;95914.41;;;4.69;98.59
1832;BME280;1680;48.106;11.708;2023-02-02T06:43:20;95918.88;;;4.75;98.45
1832;BME280;1680;48.106;11.708;2023-02-02T06:45:49;95916.91;;;4.77;98.83
1832;BME280;1680;48.106;11.708;2023-02-02T06:48:16;95908.84;;;4.72;97.80
1832;BME280;1680;48.106;11.708;2023-02-02T06:50:43;95911.28;;;4.74;96.84
1832;BME280;1680;48.106;11.708;2023-02-02T06:53:10;95925.00;;;4.82;96.89
1832;BME280;1680;48.106;11.708;2023-02-02T06:55:37;95931.44;;;4.86;96.99
1832;BME280;1680;48.106;11.708;2023-02-02T06:58:05;95924.34;;;4.94;95.90
1832;BME280;1680;48.106;11.708;2023-02-02T07:00:32;95952.53;;;5.05;94.81
1832;BME280;1680;48.106;11.708;2023-02-02T07:03:03;95947.69;;;5.02;95.58
1832;BME280;1680;48.106;11.708;2023-02-02T07:05:31;95932.88;;;5.03;94.35
1832;BME280;1680;48.106;11.708;2023-02-02T07:07:58;95936.22;;;4.97;94.53
1832;BME280;1680;48.106;11.708;2023-02-02T07:10:25;95935.22;;;4.98;95.58
1832;BME280;1680;48.106;11.708;2023-02-02T07:12:53;95929.69;;;5.01;95.04
1832;BME280;1680;48.106;11.708;2023-02-02T07:15:20;95938.16;;;4.95;95.96
1832;BME280;1680;48.106;11.708;2023-02-02T07:17:47;95944.00;;;4.97;95.44
1832;BME280;1680;48.106;11.708;2023-02-02T07:20:16;95955.38;;;4.96;96.85
1832;BME280;1680;48.106;11.708;2023-02-02T07:22:43;95956.00;;;4.98;95.89
1832;BME280;1680;48.106;11.708;2023-02-02T07:25:11;95967.38;;;4.97;95.95
1832;BME280;1680;48.106;11.708;2023-02-02T07:27:38;95938.34;;;4.93;95.21
1832;BME280;1680;48.106;11.708;2023-02-02T07:30:06;95952.69;;;5.04;94.71
1832;BME280;1680;48.106;11.708;2023-02-02T07:32:34;95968.03;;;4.99;95.70
1832;BME280;1680;48.106;11.708;2023-02-02T07:35:01;95940.88;;;5.01;95.36
1832;BME280;1680;48.106;11.708;2023-02-02T07:37:29;95962.38;;;5.10;95.62
1832;BME280;1680;48.106;11.708;2023-02-02T07:39:57;95967.84;;;5.15;93.75
1832;BME280;1680;48.106;11.708;2023-02-02T07:42:24;95961.84;;;5.14;94.40
1832;BME280;1680;48.106;11.708;2023-02-02T07:44:51;95988.28;;;5.18;93.95
1832;BME280;1680;48.106;11.708;2023-02-02T07:47:18;95988.28;;;5.18;94.41
1832;BME280;1680;48.106;11.708;2023-02-02T07:49:46;95979.31;;;5.06;95.83
1832;BME280;1680;48.106;11.708;2023-02-02T07:52:13;95969.53;;;5.08;95.60
1832;BME280;1680;48.106;11.708;2023-02-02T07:54:42;95986.94;;;5.07;96.35
1832;BME280;1680;48.106;11.708;2023-02-02T07:57:09;95979.66;;;5.03;96.61
1832;BME280;1680;48.106;11.708;2023-02-02T07:59:37;95968.28;;;4.89;97.33
1832;BME280;1680;48.106;11.708;2023-02-02T08:02:05;95970.88;;;5.04;97.92
1832;BME280;1680;48.106;11.708;2023-02-02T08:04:32;95986.56;;;5.10;99.89
1832;BME280;1680;48.106;11.708;2023-02-02T08:06:59;95975.19;;;4.97;98.35
1832;BME280;1680;48.106;11.708;2023-02-02T08:09:26;95991.41;;;4.99;99.13
1832;BME280;1680;48.106;11.708;2023-02-02T08:11:55;95995.06;;;4.90;100.00
1832;BME280;1680;48.106;11.708;2023-02-02T08:14:26;96005.09;;;4.93;100.00
1832;BME280;1680;48.106;11.708;2023-02-02T08:16:53;96009.84;;;4.89;100.00
1832;BME280;1680;48.106;11.708;2023-02-02T08:19:20;96003.78;;;4.97;100.00
1832;BME280;1680;48.106;11.708;2023-02-02T08:21:48;96004.03;;;5.02;100.00
1832;BME280;1680;48.106;11.708;2023-02-02T08:24:15;96015.84;;;4.90;100.00
1832;BME280;1680;48.106;11.708;2023-02-02T08:26:42;96012.00;;;5.00;100.00
1832;BME280;1680;48.106;11.708;2023-02-02T08:29:11;96007.25;;;5.04;99.75
1832;BME280;1680;48.106;11.708;2023-02-02T08:31:42;96024.47;;;5.05;100.00
1832;BME280;1680;48.106;11.708;2023-02-02T08:34:11;96019.75;;;5.08;99.91
1832;BME280;1680;48.106;11.708;2023-02-02T08:36:39;96036.03;;;5.02;99.57
1832;BME280;1680;48.106;11.708;2023-02-02T08:39:09;96027.25;;;5.03;100.00
1832;BME280;1680;48.106;11.708;2023-02-02T08:41:37;96025.19;;;4.99;100.00
1832;BME280;1680;48.106;11.708;2023-02-02T08:44:05;96042.41;;;5.00;100.00
1832;BME280;1680;48.106;11.708;2023-02-02T08:46:34;96045.56;;;5.10;100.00
1832;BME280;1680;48.106;11.708;2023-02-02T08:49:01;96026.44;;;5.03;100.00
1832;BME280;1680;48.106;11.708;2023-02-02T08:51:29;96050.19;;;5.00;100.00
1832;BME280;1680;48.106;11.708;2023-02-02T08:53:56;96029.41;;;5.00;100.00
1832;BME280;1680;48.106;11.708;2023-02-02T08:56:23;96030.75;;;4.96;100.00
1832;BME280;1680;48.106;11.708;2023-02-02T08:58:53;96047.75;;;4.98;100.00
1832;BME280;1680;48.106;11.708;2023-02-02T09:01:23;96034.75;;;4.84;100.00
1832;BME280;1680;48.106;11.708;2023-02-02T09:03:54;96060.75;;;4.98;100.00
1832;BME280;1680;48.106;11.708;2023-02-02T09:06:26;96061.19;;;4.87;100.00
1832;BME280;1680;48.106;11.708;2023-02-02T09:08:54;96049.59;;;4.76;100.00
1832;BME280;1680;48.106;11.708;2023-02-02T09:11:21;96022.09;;;4.81;100.00
1832;BME280;1680;48.106;11.708;2023-02-02T09:13:52;96051.31;;;4.83;100.00
1832;BME280;1680;48.106;11.708;2023-02-02T09:16:21;96060.44;;;4.79;100.00
1832;BME280;1680;48.106;11.708;2023-02-02T09:18:48;96072.66;;;4.93;100.00
1832;BME280;1680;48.106;11.708;2023-02-02T09:21:18;96064.13;;;4.84;100.00
1832;BME280;1680;48.106;11.708;2023-02-02T09:23:46;96063.59;;;4.89;100.00
1832;BME280;1680;48.106;11.708;2023-02-02T09:26:15;96052.94;;;4.84;100.00
1832;BME280;1680;48.106;11.708;2023-02-02T09:28:45;96063.19;;;5.00;100.00
1832;BME280;1680;48.106;11.708;2023-02-02T09:31:12;96058.97;;;4.99;100.00
1832;BME280;1680;48.106;11.708;2023-02-02T09:33:41;96072.41;;;5.02;100.00
1832;BME280;1680;48.106;11.708;2023-02-02T09:36:10;96076.78;;;5.02;100.00
1832;BME280;1680;48.106;11.708;2023-02-02T09:38:40;96066.41;;;5.02;100.00
1832;BME280;1680;48.106;11.708;2023-02-02T09:41:24;96053.69;;;5.07;100.00
1832;BME280;1680;48.106;11.708;2023-02-02T09:44:03;96057.63;;;5.03;100.00
1832;BME280;1680;48.106;11.708;2023-02-02T09:46:43;96060.59;;;5.00;100.00
1832;BME280;1680;48.106;11.708;2023-02-02T09:49:15;96063.41;;;5.13;100.00
1832;BME280;1680;48.106;11.708;2023-02-02T09:51:46;96065.91;;;5.21;100.00
1832;BME280;1680;48.106;11.708;2023-02-02T09:54:18;96074.34;;;5.23;100.00
1832;BME280;1680;48.106;11.708;2023-02-02T09:56:48;96074.63;;;5.28;100.00
1832;BME280;1680;48.106;11.708;2023-02-02T09:59:21;96065.22;;;5.27;100.00
1832;BME280;1680;48.106;11.708;2023-02-02T10:01:54;96070.88;;;5.30;100.00
1832;BME280;1680;48.106;11.708;2023-02-02T10:04:25;96066.13;;;5.34;100.00
1832;BME280;1680;48.106;11.708;2023-02-02T10:06:55;96077.50;;;5.33;100.00
1832;BME280;1680;48.106;11.708;2023-02-02T10:09:32;96069.34;;;5.21;100.00
1832;BME280;1680;48.106;11.708;2023-02-02T10:12:09;96064.50;;;5.18;100.00
1832;BME280;1680;48.106;11.708;2023-02-02T10:14:40;96067.63;;;5.28;100.00
1832;BME280;1680;48.106;11.708;2023-02-02T10:17:25;96050.66;;;5.18;100.00
1832;BME280;1680;48.106;11.708;2023-02-02T10:20:00;96066.34;;;5.47;100.00
1832;BME280;1680;48.106;11.708;2023-02-02T10:22:32;96056.91;;;5.46;100.00
1832;BME280;1680;48.106;11.708;2023-02-02T10:25:01;96059.22;;;5.41;100.00
1832;BME280;1680;48.106;11.708;2023-02-02T10:27:35;96069.19;;;5.52;100.00
1832;BME280;1680;48.106;11.708;2023-02-02T10:30:14;96063.75;;;5.47;100.00
1832;BME280;1680;48.106;11.708;2023-02-02T10:32:46;96060.75;;;5.50;100.00
1832;BME280;1680;48.106;11.708;2023-02-02T10:35:30;96043.00;;;5.39;100.00
1832;BME280;1680;48.106;11.708;2023-02-02T10:38:05;96053.88;;;5.57;100.00
1832;BME280;1680;48.106;11.708;2023-02-02T10:40:43;96052.88;;;5.58;99.81
1832;BME280;1680;48.106;11.708;2023-02-02T10:43:31;96064.53;;;5.47;99.10
1832;BME280;1680;48.106;11.708;2023-02-02T10:46:15;96062.91;;;5.46;100.00
1832;BME280;1680;48.106;11.708;2023-02-02T10:48:45;96052.78;;;5.51;99.98
1832;BME280;1680;48.106;11.708;2023-02-02T10:51:22;96054.84;;;5.56;99.76
1832;BME280;1680;48.106;11.708;2023-02-02T10:53:51;96060.34;;;5.61;97.82
1832;BME280;1680;48.106;11.708;2023-02-02T10:56:23;96049.38;;;5.65;97.73
1832;BME280;1680;48.106;11.708;2023-02-02T10:58:57;96046.41;;;5.54;98.22
1832;BME280;1680;48.106;11.708;2023-02-02T11:01:27;96061.22;;;5.53;97.96
1832;BME280;1680;48.106;11.708;2023-02-02T11:03:54;96041.91;;;5.48;97.94
1832;BME280;1680;48.106;11.708;2023-02-02T11:06:35;96055.00;;;5.40;99.64
1832;BME280;1680;48.106;11.708;2023-02-02T11:09:18;96041.63;;;5.28;100.00
1832;BME280;1680;48.106;11.708;2023-02-02T11:11:50;96049.13;;;5.46;100.00
1832;BME280;1680;48.106;11.708;2023-02-02T11:14:28;96043.91;;;5.46;100.00
1832;BME280;1680;48.106;11.708;2023-02-02T11:17:01;96062.28;;;5.44;99.65
1832;BME280;1680;48.106;11.708;2023-02-02T11:19:31;96054.03;;;5.55;100.00
1832;BME280;1680;48.106;11.708;2023-02-02T11:22:00;96045.97;;;5.65;99.65
1832;BME280;1680;48.106;11.708;2023-02-02T11:24:28;96052.69;;;5.59;99.19
1832;BME280;1680;48.106;11.708;2023-02-02T11:27:03;96058.69;;;5.74;98.45
1832;BME280;1680;48.106;11.708;2023-02-02T11:29:40;96055.22;;;5.81;98.24
1832;BME280;1680;48.106;11.708;2023-02-02T11:32:26;96047.84;;;5.71;99.18
1832;BME280;1680;48.106;11.708;2023-02-02T11:35:15;96062.06;;;5.82;96.50
1832;BME280;1680;48.106;11.708;2023-02-02T11:37:56;96034.78;;;5.78;98.85
1832;BME280;1680;48.106;11.708;2023-02-02T11:40:31;96052.00;;;5.79;98.78
1832;BME280;1680;48.106;11.708;2023-02-02T11:43:02;96041.25;;;5.82;99.59
1832;BME280;1680;48.106;11.708;2023-02-02T11:45:33;96037.44;;;5.71;99.62
1832;BME280;1680;48.106;11.708;2023-02-02T11:48:05;96046.94;;;5.64;100.00
1832;BME280;1680;48.106;11.708;2023-02-02T11:50:33;96046.06;;;5.57;100.00
1832;BME280;1680;48.106;11.708;2023-02-02T11:53:01;96058.06;;;5.43;100.00
1832;BME280;1680;48.106;11.708;2023-02-02T11:55:30;96055.75;;;5.48;100.00
1832;BME280;1680;48.106;11.708;2023-02-02T11:58:29;96037.72;;;5.47;100.00
1832;BME280;1680;48.106;11.708;2023-02-02T12:01:23;96030.91;;;5.46;100.00
1832;BME280;1680;48.106;11.708;2023-02-02T12:03:52;96038.41;;;5.55;100.00
1832;BME280;1680;48.106;11.708;2023-02-02T12:06:22;96029.91;;;5.61;100.00
1832;BME280;1680;48.106;11.708;2023-02-02T12:08:58;96007.31;;;5.47;100.00
1832;BME280;1680;48.106;11.708;2023-02-02T12:11:47;96038.63;;;5.68;100.00
1832;BME280;1680;48.106;11.708;2023-02-02T12:14:29;96017.25;;;5.58;100.00
1832;BME280;1680;48.106;11.708;2023-02-02T12:17:06;96037.28;;;5.58;100.00
1832;BME280;1680;48.106;11.708;2023-02-02T12:19:53;96031.16;;;5.51;100.00
1832;BME280;1680;48.106;11.708;2023-02-02T12:22:31;96037.53;;;5.48;100.00
1832;BME280;1680;48.106;11.708;2023-02-02T12:25:10;96038.31;;;5.49;100.00
1832;BME280;1680;48.106;11.708;2023-02-02T12:27:54;96038.81;;;5.52;100.00
1832;BME280;1680;48.106;11.708;2023-02-02T12:30:31;96030.63;;;5.41;100.00
1832;BME280;1680;48.106;11.708;2023-02-02T12:33:11;96060.56;;;5.37;100.00
1832;BME280;1680;48.106;11.708;2023-02-02T12:35:49;96056.34;;;5.36;100.00
1832;BME280;1680;48.106;11.708;2023-02-02T12:38:30;96046.47;;;5.31;100.00
1832;BME280;1680;48.106;11.708;2023-02-02T12:41:14;96042.56;;;5.35;100.00
1832;BME280;1680;48.106;11.708;2023-02-02T12:43:46;96048.91;;;5.33;100.00
1832;BME280;1680;48.106;11.708;2023-02-02T12:46:25;96054.72;;;5.35;100.00
1832;BME280;1680;48.106;11.708;2023-02-02T12:49:10;96046.03;;;5.28;100.00
1832;BME280;1680;48.106;11.708;2023-02-02T12:51:58;96043.34;;;5.21;100.00
1832;BME280;1680;48.106;11.708;2023-02-02T12:54:41;96074.34;;;5.23;100.00
1832;BME280;1680;48.106;11.708;2023-02-02T12:57:17;96032.84;;;5.15;100.00
1832;BME280;1680;48.106;11.708;2023-02-02T13:00:02;96063.94;;;5.23;100.00
1832;BME280;1680;48.106;11.708;2023-02-02T13:02:40;96065.22;;;5.27;100.00
1832;BME280;1680;48.106;11.708;2023-02-02T13:05:23;96074.34;;;5.23;100.00
1832;BME280;1680;48.106;11.708;2023-02-02T13:07:55;96056.59;;;5.12;100.00
1832;BME280;1680;48.106;11.708;2023-02-02T13:10:27;96056.69;;;5.18;100.00
1832;BME280;1680;48.106;11.708;2023-02-02T13:13:01;96057.84;;;5.16;100.00
1832;BME280;1680;48.106;11.708;2023-02-02T13:15:34;96071.09;;;5.06;100.00
1832;BME280;1680;48.106;11.708;2023-02-02T13:18:07;96062.47;;;5.06;100.00
1832;BME280;1680;48.106;11.708;2023-02-02T13:20:41;96084.00;;;5.00;100.00
1832;BME280;1680;48.106;11.708;2023-02-02T13:23:12;96078.19;;;4.90;100.00
1832;BME280;1680;48.106;11.708;2023-02-02T13:25:46;96108.81;;;4.80;100.00
1832;BME280;1680;48.106;11.708;2023-02-02T13:28:29;96099.09;;;4.74;100.00
1832;BME280;1680;48.106;11.708;2023-02-02T13:30:59;96070.41;;;4.45;100.00
1832;BME280;1680;48.106;11.708;2023-02-02T13:33:33;96105.47;;;4.94;100.00
1832;BME280;1680;48.106;11.708;2023-02-02T13:36:04;96101.94;;;4.87;100.00
1832;BME280;1680;48.106;11.708;2023-02-02T13:38:34;96110.13;;;4.76;100.00
1832;BME280;1680;48.106;11.708;2023-02-02T13:41:09;96110.19;;;4.68;100.00